Back to Top

Language: 

My Weather Underground Personal Weather Station Historical Data with Graphs...

Delerius Weather Station Historical Data
Daily Summary for January 10, 2018 Units:  Both    English   Metric
« Previous Day
Next Day »
Daily Weekly Monthly Yearly Custom
  High: Low: Average:
Temperature: 46.9 °F /  8.3 °C 40.3 °F /  4.6 °C 45 °F /  7.2 °C
Dew Point: 46.1 °F /  7.8 °C 39.8 °F /  4.3 °C 43.4 °F /  6.3 °C
Humidity: 98 % 90 % 94 %
Wind Speed: 7.0 mph /  11.3 km/h - 2.7 mph /  4.3 km/h
Wind Gust: 11.0 mph /  17.7 km/h - -
Wind:- - NW
Pressure: 29.71 in /  1006 hPa 29.63 in /  1003.3 hPa -
Precipitation: 0.03 in /  0.76 mm    
Historical Graphs
 
 
Tabular Data for January 10, 2018
Time Temperature Dew Point Pressure Wind Wind Speed Wind Gust Humidity Rainfall Rate (Hourly) solar Conditions
09:37 40.3 °F /  4.6 °C 39.8 °F /  4.3 °C 29.63 in /  1003.3 hPa Calm     98 % 0.01 in /  0.25 mm 18 W/m2
12:19 43.5 °F /  6.4 °C 43.0 °F /  6.1 °C 29.64 in /  1003.6 hPa Calm     98 % 0.00 in /  0 mm 118 W/m2
12:58 45.9 °F /  7.7 °C 45.3 °F /  7.4 °C 29.64 in /  1003.6 hPa NW 1.0 mph /  1.6 km/h 4.0 mph /  6.4 km/h 98 % 0.00 in /  0 mm 250 W/m2
13:04 45.9 °F /  7.7 °C 45.3 °F /  7.4 °C 29.64 in /  1003.6 hPa NW 3.0 mph /  4.8 km/h 5.0 mph /  8 km/h 98 % 0.00 in /  0 mm 120 W/m2
13:12 45.7 °F /  7.6 °C 45.1 °F /  7.3 °C 29.63 in /  1003.3 hPa Calm   2.0 mph /  3.2 km/h 98 % 0.00 in /  0 mm 97 W/m2
13:25 45.3 °F /  7.4 °C 44.8 °F /  7.1 °C 29.64 in /  1003.6 hPa NW 2.0 mph /  3.2 km/h 6.0 mph /  9.7 km/h 98 % 0.00 in /  0 mm 192 W/m2
13:33 45.5 °F /  7.5 °C 45.0 °F /  7.2 °C 29.64 in /  1003.6 hPa WNW 1.0 mph /  1.6 km/h 7.0 mph /  11.3 km/h 98 % 0.00 in /  0 mm 118 W/m2
14:18 46.4 °F /  8 °C 45.9 °F /  7.7 °C 29.65 in /  1003.9 hPa Calm   1.0 mph /  1.6 km/h 98 % 0.00 in /  0 mm 193 W/m2
14:39 46.9 °F /  8.3 °C 46.1 °F /  7.8 °C 29.65 in /  1003.9 hPa Calm   2.0 mph /  3.2 km/h 97 % 0.00 in /  0 mm 56 W/m2
14:49 46.4 °F /  8 °C 45.3 °F /  7.4 °C 29.66 in /  1004.3 hPa NW 3.0 mph /  4.8 km/h 7.0 mph /  11.3 km/h 96 % 0.00 in /  0 mm 56 W/m2
15:00 46.0 °F /  7.8 °C 44.7 °F /  7.1 °C 29.66 in /  1004.3 hPa NW 1.0 mph /  1.6 km/h 2.0 mph /  3.2 km/h 95 % 0.00 in /  0 mm 56 W/m2
15:06 46.0 °F /  7.8 °C 44.7 °F /  7.1 °C 29.66 in /  1004.3 hPa Calm   4.0 mph /  6.4 km/h 95 % 0.00 in /  0 mm 51 W/m2
15:17 46.0 °F /  7.8 °C 44.7 °F /  7.1 °C 29.67 in /  1004.6 hPa NW 2.0 mph /  3.2 km/h 4.0 mph /  6.4 km/h 95 % 0.00 in /  0 mm 28 W/m2
15:26 45.9 °F /  7.7 °C 44.2 °F /  6.8 °C 29.67 in /  1004.6 hPa Calm   3.0 mph /  4.8 km/h 94 % 0.00 in /  0 mm 26 W/m2
15:33 45.9 °F /  7.7 °C 44.2 °F /  6.8 °C 29.67 in /  1004.6 hPa Calm   2.0 mph /  3.2 km/h 94 % 0.00 in /  0 mm 18 W/m2
15:39 45.9 °F /  7.7 °C 44.2 °F /  6.8 °C 29.68 in /  1005 hPa NW 1.0 mph /  1.6 km/h 5.0 mph /  8 km/h 94 % 0.00 in /  0 mm 14 W/m2
15:46 45.5 °F /  7.5 °C 43.6 °F /  6.4 °C 29.68 in /  1005 hPa WNW 5.0 mph /  8 km/h 9.0 mph /  14.5 km/h 93 % 0.00 in /  0 mm 11 W/m2
15:54 45.1 °F /  7.3 °C 43.2 °F /  6.2 °C 29.68 in /  1005 hPa NW 3.0 mph /  4.8 km/h 6.0 mph /  9.7 km/h 93 % 0.00 in /  0 mm 9 W/m2
16:12 45.0 °F /  7.2 °C 42.8 °F /  6 °C 29.68 in /  1005 hPa NW 4.0 mph /  6.4 km/h 8.0 mph /  12.9 km/h 92 % 0.00 in /  0 mm 5 W/m2
16:22 44.8 °F /  7.1 °C 42.3 °F /  5.7 °C 29.69 in /  1005.3 hPa NW 4.0 mph /  6.4 km/h 9.0 mph /  14.5 km/h 91 % 0.00 in /  0 mm 0 W/m2
16:30 44.8 °F /  7.1 °C 42.3 °F /  5.7 °C 29.69 in /  1005.3 hPa NW 6.0 mph /  9.7 km/h 11.0 mph /  17.7 km/h 91 % 0.00 in /  0 mm 0 W/m2
16:44 44.6 °F /  7 °C 41.8 °F /  5.4 °C 29.70 in /  1005.6 hPa NW 6.0 mph /  9.7 km/h 10.0 mph /  16.1 km/h 90 % 0.00 in /  0 mm 0 W/m2
16:50 44.4 °F /  6.9 °C 41.7 °F /  5.4 °C 29.70 in /  1005.6 hPa NW 7.0 mph /  11.3 km/h 11.0 mph /  17.7 km/h 90 % 0.00 in /  0 mm 0 W/m2
17:02 44.4 °F /  6.9 °C 41.7 °F /  5.4 °C 29.70 in /  1005.6 hPa NW 5.0 mph /  8 km/h 9.0 mph /  14.5 km/h 90 % 0.00 in /  0 mm 0 W/m2
17:12 44.2 °F /  6.8 °C 41.8 °F /  5.4 °C 29.70 in /  1005.6 hPa NW 6.0 mph /  9.7 km/h 9.0 mph /  14.5 km/h 91 % 0.00 in /  0 mm 0 W/m2
17:26 44.1 °F /  6.7 °C 41.6 °F /  5.3 °C 29.70 in /  1005.6 hPa NW 5.0 mph /  8 km/h 10.0 mph /  16.1 km/h 91 % 0.00 in /  0 mm 0 W/m2
17:36 43.9 °F /  6.6 °C 41.4 °F /  5.2 °C 29.70 in /  1005.6 hPa NW 4.0 mph /  6.4 km/h 8.0 mph /  12.9 km/h 91 % 0.00 in /  0 mm 0 W/m2
17:49 43.5 °F /  6.4 °C 41.1 °F /  5.1 °C 29.71 in /  1006 hPa NW 5.0 mph /  8 km/h 8.0 mph /  12.9 km/h 91 % 0.00 in /  0 mm 0 W/m2
17:58 43.3 °F /  6.3 °C 40.9 °F /  4.9 °C 29.71 in /  1006 hPa NW 4.0 mph /  6.4 km/h 8.0 mph /  12.9 km/h 91 % 0.00 in /  0 mm 0 W/m2
Delerius-Weather
Compliments of Weather Underground - 1.25 mb

Data updates at regular intervals.